sensor_id;sensor_type;location;lat;lon;timestamp;temperature;humidity
22838;DHT22;11585;51.450;-0.240;2023-05-18T00:01:53;15.90;99.90
22838;DHT22;11585;51.450;-0.240;2023-05-18T00:04:20;15.90;99.90
22838;DHT22;11585;51.450;-0.240;2023-05-18T00:06:48;15.90;99.90
22838;DHT22;11585;51.450;-0.240;2023-05-18T00:12:37;15.90;99.90
22838;DHT22;11585;51.450;-0.240;2023-05-18T00:15:03;15.80;99.90
22838;DHT22;11585;51.450;-0.240;2023-05-18T00:17:29;15.80;99.90
22838;DHT22;11585;51.450;-0.240;2023-05-18T00:20:15;15.80;99.90
22838;DHT22;11585;51.450;-0.240;2023-05-18T00:22:42;15.80;99.90
22838;DHT22;11585;51.450;-0.240;2023-05-18T00:25:08;15.80;99.90
22838;DHT22;11585;51.450;-0.240;2023-05-18T00:27:33;15.80;99.90
22838;DHT22;11585;51.450;-0.240;2023-05-18T00:33:22;15.80;99.90
22838;DHT22;11585;51.450;-0.240;2023-05-18T00:35:47;15.80;99.90
22838;DHT22;11585;51.450;-0.240;2023-05-18T00:38:13;15.70;99.90
22838;DHT22;11585;51.450;-0.240;2023-05-18T00:40:42;15.70;99.90
22838;DHT22;11585;51.450;-0.240;2023-05-18T00:43:08;15.70;99.90
22838;DHT22;11585;51.450;-0.240;2023-05-18T00:45:34;15.70;99.90
22838;DHT22;11585;51.450;-0.240;2023-05-18T00:48:00;15.70;99.90
22838;DHT22;11585;51.450;-0.240;2023-05-18T00:53:49;15.60;99.90
22838;DHT22;11585;51.450;-0.240;2023-05-18T00:56:15;15.60;99.90
22838;DHT22;11585;51.450;-0.240;2023-05-18T01:02:04;15.60;99.90
22838;DHT22;11585;51.450;-0.240;2023-05-18T01:04:50;15.60;99.90
22838;DHT22;11585;51.450;-0.240;2023-05-18T01:07:17;15.50;99.90
22838;DHT22;11585;51.450;-0.240;2023-05-18T01:09:44;15.50;99.90
22838;DHT22;11585;51.450;-0.240;2023-05-18T01:12:31;15.50;99.90
22838;DHT22;11585;51.450;-0.240;2023-05-18T01:15:14;15.50;99.90
22838;DHT22;11585;51.450;-0.240;2023-05-18T01:21:05;15.50;99.90
22838;DHT22;11585;51.450;-0.240;2023-05-18T01:23:50;15.50;99.90
22838;DHT22;11585;51.450;-0.240;2023-05-18T01:26:23;15.40;99.90
22838;DHT22;11585;51.450;-0.240;2023-05-18T01:29:14;15.40;99.90
22838;DHT22;11585;51.450;-0.240;2023-05-18T01:31:42;15.40;99.90
22838;DHT22;11585;51.450;-0.240;2023-05-18T01:34:08;15.40;99.90
22838;DHT22;11585;51.450;-0.240;2023-05-18T01:36:34;15.40;99.90
22838;DHT22;11585;51.450;-0.240;2023-05-18T01:42:25;15.40;99.90
22838;DHT22;11585;51.450;-0.240;2023-05-18T01:45:02;15.30;99.90
22838;DHT22;11585;51.450;-0.240;2023-05-18T01:47:32;15.30;99.90
22838;DHT22;11585;51.450;-0.240;2023-05-18T01:53:07;15.30;99.90
22838;DHT22;11585;51.450;-0.240;2023-05-18T01:55:35;15.30;99.90
22838;DHT22;11585;51.450;-0.240;2023-05-18T01:58:04;15.20;99.90
22838;DHT22;11585;51.450;-0.240;2023-05-18T02:03:53;15.20;99.90
22838;DHT22;11585;51.450;-0.240;2023-05-18T02:06:20;15.20;99.90
22838;DHT22;11585;51.450;-0.240;2023-05-18T02:08:47;15.20;99.90
22838;DHT22;11585;51.450;-0.240;2023-05-18T02:11:13;15.20;99.90
22838;DHT22;11585;51.450;-0.240;2023-05-18T02:13:38;15.20;99.90
22838;DHT22;11585;51.450;-0.240;2023-05-18T02:16:04;15.10;99.90
22838;DHT22;11585;51.450;-0.240;2023-05-18T02:18:31;15.10;99.90
22838;DHT22;11585;51.450;-0.240;2023-05-18T02:21:00;15.10;99.90
22838;DHT22;11585;51.450;-0.240;2023-05-18T02:23:26;15.10;99.90
22838;DHT22;11585;51.450;-0.240;2023-05-18T02:25:52;15.10;99.90
22838;DHT22;11585;51.450;-0.240;2023-05-18T02:31:42;15.10;99.90
22838;DHT22;11585;51.450;-0.240;2023-05-18T02:34:08;15.00;99.90
22838;DHT22;11585;51.450;-0.240;2023-05-18T02:36:34;15.10;99.90
22838;DHT22;11585;51.450;-0.240;2023-05-18T02:39:09;15.00;99.90
22838;DHT22;11585;51.450;-0.240;2023-05-18T02:41:35;15.00;99.90
22838;DHT22;11585;51.450;-0.240;2023-05-18T02:44:02;15.00;99.90
22838;DHT22;11585;51.450;-0.240;2023-05-18T02:46:28;15.00;99.90
22838;DHT22;11585;51.450;-0.240;2023-05-18T02:48:56;15.00;99.90
22838;DHT22;11585;51.450;-0.240;2023-05-18T02:51:22;15.00;99.90
22838;DHT22;11585;51.450;-0.240;2023-05-18T02:53:48;15.00;99.90
22838;DHT22;11585;51.450;-0.240;2023-05-18T02:56:14;14.90;99.90
22838;DHT22;11585;51.450;-0.240;2023-05-18T03:02:02;14.90;99.90
22838;DHT22;11585;51.450;-0.240;2023-05-18T03:04:27;14.90;99.90
22838;DHT22;11585;51.450;-0.240;2023-05-18T03:06:53;14.90;99.90
22838;DHT22;11585;51.450;-0.240;2023-05-18T03:12:40;14.80;99.90
22838;DHT22;11585;51.450;-0.240;2023-05-18T03:15:07;14.80;99.90
22838;DHT22;11585;51.450;-0.240;2023-05-18T03:17:32;14.80;99.90
22838;DHT22;11585;51.450;-0.240;2023-05-18T03:19:59;14.80;99.90
22838;DHT22;11585;51.450;-0.240;2023-05-18T03:22:28;14.80;99.90
22838;DHT22;11585;51.450;-0.240;2023-05-18T03:24:54;14.80;99.90
22838;DHT22;11585;51.450;-0.240;2023-05-18T03:27:19;14.80;99.90
22838;DHT22;11585;51.450;-0.240;2023-05-18T03:29:52;14.80;99.90
22838;DHT22;11585;51.450;-0.240;2023-05-18T03:32:18;14.80;99.90
22838;DHT22;11585;51.450;-0.240;2023-05-18T03:34:44;14.70;99.90
22838;DHT22;11585;51.450;-0.240;2023-05-18T03:37:12;14.70;99.90
22838;DHT22;11585;51.450;-0.240;2023-05-18T03:43:00;14.70;99.90
22838;DHT22;11585;51.450;-0.240;2023-05-18T03:48:47;14.70;99.90
22838;DHT22;11585;51.450;-0.240;2023-05-18T03:51:13;14.60;99.90
22838;DHT22;11585;51.450;-0.240;2023-05-18T03:53:39;14.60;99.90
22838;DHT22;11585;51.450;-0.240;2023-05-18T03:56:06;14.60;99.90
22838;DHT22;11585;51.450;-0.240;2023-05-18T03:58:53;14.60;99.90
22838;DHT22;11585;51.450;-0.240;2023-05-18T04:01:19;14.60;99.90
22838;DHT22;11585;51.450;-0.240;2023-05-18T04:03:47;14.60;99.90
22838;DHT22;11585;51.450;-0.240;2023-05-18T04:06:15;14.60;99.90
22838;DHT22;11585;51.450;-0.240;2023-05-18T04:08:42;14.60;99.90
22838;DHT22;11585;51.450;-0.240;2023-05-18T04:11:08;14.60;99.90
22838;DHT22;11585;51.450;-0.240;2023-05-18T04:13:36;14.50;99.90
22838;DHT22;11585;51.450;-0.240;2023-05-18T04:16:02;14.50;99.90
22838;DHT22;11585;51.450;-0.240;2023-05-18T04:21:34;14.50;99.90
22838;DHT22;11585;51.450;-0.240;2023-05-18T04:24:01;14.50;99.90
22838;DHT22;11585;51.450;-0.240;2023-05-18T04:26:29;14.50;99.90
22838;DHT22;11585;51.450;-0.240;2023-05-18T04:32:17;14.40;99.90
22838;DHT22;11585;51.450;-0.240;2023-05-18T04:34:45;14.40;99.90
22838;DHT22;11585;51.450;-0.240;2023-05-18T04:37:13;14.40;99.90
22838;DHT22;11585;51.450;-0.240;2023-05-18T04:43:07;14.40;99.90
22838;DHT22;11585;51.450;-0.240;2023-05-18T04:45:33;14.30;99.90
22838;DHT22;11585;51.450;-0.240;2023-05-18T04:47:59;14.30;99.90
22838;DHT22;11585;51.450;-0.240;2023-05-18T04:53:30;14.30;99.90
22838;DHT22;11585;51.450;-0.240;2023-05-18T04:55:58;14.30;99.90
22838;DHT22;11585;51.450;-0.240;2023-05-18T05:01:47;14.30;99.90
22838;DHT22;11585;51.450;-0.240;2023-05-18T05:04:12;14.20;99.90
22838;DHT22;11585;51.450;-0.240;2023-05-18T05:06:38;14.30;99.90
22838;DHT22;11585;51.450;-0.240;2023-05-18T05:12:26;14.20;99.90
22838;DHT22;11585;51.450;-0.240;2023-05-18T05:14:52;14.20;99.90
22838;DHT22;11585;51.450;-0.240;2023-05-18T05:17:17;14.20;99.90
22838;DHT22;11585;51.450;-0.240;2023-05-18T05:19:45;14.20;99.90
22838;DHT22;11585;51.450;-0.240;2023-05-18T05:22:10;14.20;99.90
22838;DHT22;11585;51.450;-0.240;2023-05-18T05:24:36;14.10;99.90
22838;DHT22;11585;51.450;-0.240;2023-05-18T05:27:02;14.20;99.90
22838;DHT22;11585;51.450;-0.240;2023-05-18T05:32:32;14.10;99.90
22838;DHT22;11585;51.450;-0.240;2023-05-18T05:34:57;14.10;99.90
22838;DHT22;11585;51.450;-0.240;2023-05-18T05:37:23;14.10;99.90
22838;DHT22;11585;51.450;-0.240;2023-05-18T05:39:51;14.10;99.90
22838;DHT22;11585;51.450;-0.240;2023-05-18T05:42:16;14.10;99.90
22838;DHT22;11585;51.450;-0.240;2023-05-18T05:44:42;14.10;99.90
22838;DHT22;11585;51.450;-0.240;2023-05-18T05:47:08;14.10;99.90
22838;DHT22;11585;51.450;-0.240;2023-05-18T05:52:37;14.10;99.90
22838;DHT22;11585;51.450;-0.240;2023-05-18T05:55:03;14.10;99.90
22838;DHT22;11585;51.450;-0.240;2023-05-18T05:57:29;14.10;99.90
22838;DHT22;11585;51.450;-0.240;2023-05-18T06:03:16;14.10;99.90
22838;DHT22;11585;51.450;-0.240;2023-05-18T06:05:42;14.10;99.90
22838;DHT22;11585;51.450;-0.240;2023-05-18T06:08:07;14.10;99.90
22838;DHT22;11585;51.450;-0.240;2023-05-18T06:10:33;14.10;99.90
22838;DHT22;11585;51.450;-0.240;2023-05-18T06:12:59;14.10;99.90
22838;DHT22;11585;51.450;-0.240;2023-05-18T06:15:24;14.10;99.90
22838;DHT22;11585;51.450;-0.240;2023-05-18T06:17:50;14.10;99.90
22838;DHT22;11585;51.450;-0.240;2023-05-18T06:23:38;14.20;99.90
22838;DHT22;11585;51.450;-0.240;2023-05-18T06:26:04;14.20;99.90
22838;DHT22;11585;51.450;-0.240;2023-05-18T06:31:35;14.20;99.90
22838;DHT22;11585;51.450;-0.240;2023-05-18T06:34:01;14.20;99.90
22838;DHT22;11585;51.450;-0.240;2023-05-18T06:36:26;14.30;99.90
22838;DHT22;11585;51.450;-0.240;2023-05-18T06:38:54;14.30;99.90
22838;DHT22;11585;51.450;-0.240;2023-05-18T06:41:20;14.40;99.90
22838;DHT22;11585;51.450;-0.240;2023-05-18T06:43:46;14.40;99.90
22838;DHT22;11585;51.450;-0.240;2023-05-18T06:46:22;14.40;99.90
22838;DHT22;11585;51.450;-0.240;2023-05-18T06:49:09;14.50;99.90
22838;DHT22;11585;51.450;-0.240;2023-05-18T06:51:34;14.60;99.90
22838;DHT22;11585;51.450;-0.240;2023-05-18T06:54:00;14.60;99.90
22838;DHT22;11585;51.450;-0.240;2023-05-18T06:56:25;14.70;99.90
22838;DHT22;11585;51.450;-0.240;2023-05-18T06:59:12;14.70;99.90
22838;DHT22;11585;51.450;-0.240;2023-05-18T07:01:38;14.80;99.90
22838;DHT22;11585;51.450;-0.240;2023-05-18T07:04:03;14.80;99.90
22838;DHT22;11585;51.450;-0.240;2023-05-18T07:06:29;14.90;99.90
22838;DHT22;11585;51.450;-0.240;2023-05-18T07:12:17;15.00;99.90
22838;DHT22;11585;51.450;-0.240;2023-05-18T07:17:46;15.10;99.90
22838;DHT22;11585;51.450;-0.240;2023-05-18T07:23:35;15.20;99.90
22838;DHT22;11585;51.450;-0.240;2023-05-18T07:29:23;15.30;99.90
22838;DHT22;11585;51.450;-0.240;2023-05-18T07:31:49;15.30;99.90
22838;DHT22;11585;51.450;-0.240;2023-05-18T07:34:15;15.30;99.90
22838;DHT22;11585;51.450;-0.240;2023-05-18T07:36:40;15.40;99.90
22838;DHT22;11585;51.450;-0.240;2023-05-18T07:39:08;15.40;99.90
22838;DHT22;11585;51.450;-0.240;2023-05-18T07:41:41;15.40;99.90
22838;DHT22;11585;51.450;-0.240;2023-05-18T07:44:07;15.40;99.90
22838;DHT22;11585;51.450;-0.240;2023-05-18T07:46:32;15.40;99.90
22838;DHT22;11585;51.450;-0.240;2023-05-18T07:49:01;15.50;99.90
22838;DHT22;11585;51.450;-0.240;2023-05-18T07:51:27;15.50;99.90
22838;DHT22;11585;51.450;-0.240;2023-05-18T07:53:52;15.50;99.90
22838;DHT22;11585;51.450;-0.240;2023-05-18T07:56:18;15.50;99.90
22838;DHT22;11585;51.450;-0.240;2023-05-18T08:02:05;15.60;99.90
22838;DHT22;11585;51.450;-0.240;2023-05-18T08:04:32;15.60;99.90
22838;DHT22;11585;51.450;-0.240;2023-05-18T08:06:58;15.60;99.90
22838;DHT22;11585;51.450;-0.240;2023-05-18T08:12:46;15.70;99.90
22838;DHT22;11585;51.450;-0.240;2023-05-18T08:15:12;15.70;99.90
22838;DHT22;11585;51.450;-0.240;2023-05-18T08:17:38;15.70;99.90
22838;DHT22;11585;51.450;-0.240;2023-05-18T08:23:28;15.70;99.90
22838;DHT22;11585;51.450;-0.240;2023-05-18T08:25:54;15.80;99.90
22838;DHT22;11585;51.450;-0.240;2023-05-18T08:31:43;15.80;99.90
22838;DHT22;11585;51.450;-0.240;2023-05-18T08:34:11;15.80;99.90
22838;DHT22;11585;51.450;-0.240;2023-05-18T08:36:37;15.80;99.90
22838;DHT22;11585;51.450;-0.240;2023-05-18T08:42:30;15.90;99.90
22838;DHT22;11585;51.450;-0.240;2023-05-18T08:48:00;16.00;99.90
22838;DHT22;11585;51.450;-0.240;2023-05-18T08:50:31;16.00;99.90
22838;DHT22;11585;51.450;-0.240;2023-05-18T08:53:04;16.00;99.90
22838;DHT22;11585;51.450;-0.240;2023-05-18T08:55:31;16.10;99.90
22838;DHT22;11585;51.450;-0.240;2023-05-18T08:58:02;16.10;99.90
22838;DHT22;11585;51.450;-0.240;2023-05-18T09:03:50;16.20;99.90
22838;DHT22;11585;51.450;-0.240;2023-05-18T09:09:41;16.20;99.90
22838;DHT22;11585;51.450;-0.240;2023-05-18T09:12:08;16.30;99.90
22838;DHT22;11585;51.450;-0.240;2023-05-18T09:14:34;16.30;99.90
22838;DHT22;11585;51.450;-0.240;2023-05-18T09:17:00;16.40;99.90
22838;DHT22;11585;51.450;-0.240;2023-05-18T09:19:46;16.40;99.90
22838;DHT22;11585;51.450;-0.240;2023-05-18T09:22:13;16.50;99.90
22838;DHT22;11585;51.450;-0.240;2023-05-18T09:24:40;16.40;99.90
22838;DHT22;11585;51.450;-0.240;2023-05-18T09:27:06;16.50;99.90
22838;DHT22;11585;51.450;-0.240;2023-05-18T09:29:32;16.60;99.90
22838;DHT22;11585;51.450;-0.240;2023-05-18T09:32:09;16.60;99.90
22838;DHT22;11585;51.450;-0.240;2023-05-18T09:34:39;16.60;99.90
22838;DHT22;11585;51.450;-0.240;2023-05-18T09:37:05;16.70;99.90
22838;DHT22;11585;51.450;-0.240;2023-05-18T09:42:41;16.70;99.90
22838;DHT22;11585;51.450;-0.240;2023-05-18T09:45:19;16.70;99.90
22838;DHT22;11585;51.450;-0.240;2023-05-18T09:47:49;16.80;99.90
22838;DHT22;11585;51.450;-0.240;2023-05-18T09:50:22;16.80;99.90
22838;DHT22;11585;51.450;-0.240;2023-05-18T09:52:49;16.90;99.90
22838;DHT22;11585;51.450;-0.240;2023-05-18T09:55:24;16.90;99.90
22838;DHT22;11585;51.450;-0.240;2023-05-18T09:57:50;16.90;99.90
22838;DHT22;11585;51.450;-0.240;2023-05-18T10:00:18;17.00;99.90
22838;DHT22;11585;51.450;-0.240;2023-05-18T10:02:46;17.00;99.90
22838;DHT22;11585;51.450;-0.240;2023-05-18T10:05:20;17.00;99.90
22838;DHT22;11585;51.450;-0.240;2023-05-18T10:07:46;17.10;99.90
22838;DHT22;11585;51.450;-0.240;2023-05-18T10:10:19;17.10;99.90
22838;DHT22;11585;51.450;-0.240;2023-05-18T10:12:45;17.10;99.90
22838;DHT22;11585;51.450;-0.240;2023-05-18T10:15:15;17.20;99.90
22838;DHT22;11585;51.450;-0.240;2023-05-18T10:17:42;17.20;99.90
22838;DHT22;11585;51.450;-0.240;2023-05-18T10:23:32;17.30;99.90
22838;DHT22;11585;51.450;-0.240;2023-05-18T10:25:59;17.30;99.90
22838;DHT22;11585;51.450;-0.240;2023-05-18T10:28:44;17.40;99.90
22838;DHT22;11585;51.450;-0.240;2023-05-18T10:31:12;17.40;99.90
22838;DHT22;11585;51.450;-0.240;2023-05-18T10:33:40;17.40;99.90
22838;DHT22;11585;51.450;-0.240;2023-05-18T10:36:08;17.40;99.90
22838;DHT22;11585;51.450;-0.240;2023-05-18T10:41:58;17.50;99.90
22838;DHT22;11585;51.450;-0.240;2023-05-18T10:44:24;17.50;99.90
22838;DHT22;11585;51.450;-0.240;2023-05-18T10:46:51;17.60;99.90
22838;DHT22;11585;51.450;-0.240;2023-05-18T10:52:41;17.70;99.90
22838;DHT22;11585;51.450;-0.240;2023-05-18T10:55:10;17.70;99.90
22838;DHT22;11585;51.450;-0.240;2023-05-18T10:57:45;17.70;99.90
22838;DHT22;11585;51.450;-0.240;2023-05-18T11:00:12;17.70;99.90
22838;DHT22;11585;51.450;-0.240;2023-05-18T11:02:39;17.80;99.90
22838;DHT22;11585;51.450;-0.240;2023-05-18T11:05:07;17.80;99.90
22838;DHT22;11585;51.450;-0.240;2023-05-18T11:07:33;17.80;99.90
22838;DHT22;11585;51.450;-0.240;2023-05-18T11:13:30;17.90;99.90
22838;DHT22;11585;51.450;-0.240;2023-05-18T11:27:36;18.10;99.90
22838;DHT22;11585;51.450;-0.240;2023-05-18T11:33:23;18.10;99.90
22838;DHT22;11585;51.450;-0.240;2023-05-18T11:36:12;18.10;99.90
22838;DHT22;11585;51.450;-0.240;2023-05-18T11:39:05;18.20;99.90
22838;DHT22;11585;51.450;-0.240;2023-05-18T11:41:39;18.20;99.90
22838;DHT22;11585;51.450;-0.240;2023-05-18T11:47:03;18.20;99.90
22838;DHT22;11585;51.450;-0.240;2023-05-18T11:52:51;18.30;99.90
22838;DHT22;11585;51.450;-0.240;2023-05-18T11:55:19;18.30;99.90
22838;DHT22;11585;51.450;-0.240;2023-05-18T11:57:48;18.40;99.90
22838;DHT22;11585;51.450;-0.240;2023-05-18T12:03:35;18.40;99.90
22838;DHT22;11585;51.450;-0.240;2023-05-18T12:06:04;18.40;99.90
22838;DHT22;11585;51.450;-0.240;2023-05-18T12:11:53;18.50;99.90
22838;DHT22;11585;51.450;-0.240;2023-05-18T12:14:20;18.50;99.90
22838;DHT22;11585;51.450;-0.240;2023-05-18T12:16:47;18.50;99.90
22838;DHT22;11585;51.450;-0.240;2023-05-18T12:22:37;18.60;99.90
22838;DHT22;11585;51.450;-0.240;2023-05-18T12:25:03;18.60;99.90
22838;DHT22;11585;51.450;-0.240;2023-05-18T12:27:29;18.60;99.90
22838;DHT22;11585;51.450;-0.240;2023-05-18T12:33:25;18.70;99.90
22838;DHT22;11585;51.450;-0.240;2023-05-18T12:35:53;18.70;99.90
22838;DHT22;11585;51.450;-0.240;2023-05-18T12:38:19;18.70;99.90
22838;DHT22;11585;51.450;-0.240;2023-05-18T12:40:49;18.70;99.90
22838;DHT22;11585;51.450;-0.240;2023-05-18T12:43:17;18.70;99.90
22838;DHT22;11585;51.450;-0.240;2023-05-18T12:45:43;18.70;99.90
22838;DHT22;11585;51.450;-0.240;2023-05-18T12:48:12;18.80;99.90
22838;DHT22;11585;51.450;-0.240;2023-05-18T12:50:46;18.80;99.90
22838;DHT22;11585;51.450;-0.240;2023-05-18T12:53:12;18.80;99.90
22838;DHT22;11585;51.450;-0.240;2023-05-18T12:55:38;18.80;99.90
22838;DHT22;11585;51.450;-0.240;2023-05-18T12:58:05;18.80;99.90
22838;DHT22;11585;51.450;-0.240;2023-05-18T13:03:58;18.90;99.90
22838;DHT22;11585;51.450;-0.240;2023-05-18T13:06:24;18.90;99.90
22838;DHT22;11585;51.450;-0.240;2023-05-18T13:12:12;18.90;99.90
22838;DHT22;11585;51.450;-0.240;2023-05-18T13:14:37;18.90;99.90
22838;DHT22;11585;51.450;-0.240;2023-05-18T13:17:03;18.90;99.90
22838;DHT22;11585;51.450;-0.240;2023-05-18T13:22:51;19.00;99.90
22838;DHT22;11585;51.450;-0.240;2023-05-18T13:25:17;19.00;99.90
22838;DHT22;11585;51.450;-0.240;2023-05-18T13:27:43;19.00;99.90
22838;DHT22;11585;51.450;-0.240;2023-05-18T13:33:35;19.10;99.90
22838;DHT22;11585;51.450;-0.240;2023-05-18T13:36:00;19.10;99.90
22838;DHT22;11585;51.450;-0.240;2023-05-18T13:38:28;19.10;99.90
22838;DHT22;11585;51.450;-0.240;2023-05-18T13:40:54;19.10;99.90
22838;DHT22;11585;51.450;-0.240;2023-05-18T13:43:20;19.10;99.90
22838;DHT22;11585;51.450;-0.240;2023-05-18T13:45:46;19.20;99.90
22838;DHT22;11585;51.450;-0.240;2023-05-18T13:48:11;19.20;99.90
22838;DHT22;11585;51.450;-0.240;2023-05-18T13:50:38;19.20;99.90
22838;DHT22;11585;51.450;-0.240;2023-05-18T13:53:04;19.30;99.90
22838;DHT22;11585;51.450;-0.240;2023-05-18T13:55:29;19.30;99.90
22838;DHT22;11585;51.450;-0.240;2023-05-18T13:57:55;19.30;99.90
22838;DHT22;11585;51.450;-0.240;2023-05-18T14:03:42;19.30;99.90
22838;DHT22;11585;51.450;-0.240;2023-05-18T14:09:30;19.40;99.90
22838;DHT22;11585;51.450;-0.240;2023-05-18T14:11:56;19.40;99.90
22838;DHT22;11585;51.450;-0.240;2023-05-18T14:14:22;19.40;99.90
22838;DHT22;11585;51.450;-0.240;2023-05-18T14:16:48;19.40;99.90
22838;DHT22;11585;51.450;-0.240;2023-05-18T14:22:36;19.50;99.90
22838;DHT22;11585;51.450;-0.240;2023-05-18T14:28:23;19.50;99.90
22838;DHT22;11585;51.450;-0.240;2023-05-18T14:30:49;19.50;99.90
22838;DHT22;11585;51.450;-0.240;2023-05-18T14:33:14;19.60;99.90
22838;DHT22;11585;51.450;-0.240;2023-05-18T14:35:40;19.60;99.90
22838;DHT22;11585;51.450;-0.240;2023-05-18T14:38:06;19.60;99.90
22838;DHT22;11585;51.450;-0.240;2023-05-18T14:40:33;19.60;99.90
22838;DHT22;11585;51.450;-0.240;2023-05-18T14:42:59;19.70;99.90
22838;DHT22;11585;51.450;-0.240;2023-05-18T14:45:25;19.70;99.90
22838;DHT22;11585;51.450;-0.240;2023-05-18T14:47:51;19.70;99.90
22838;DHT22;11585;51.450;-0.240;2023-05-18T14:50:36;19.70;99.90
22838;DHT22;11585;51.450;-0.240;2023-05-18T14:53:02;19.80;99.90
22838;DHT22;11585;51.450;-0.240;2023-05-18T14:55:28;19.80;99.90
22838;DHT22;11585;51.450;-0.240;2023-05-18T14:57:54;19.80;99.90
22838;DHT22;11585;51.450;-0.240;2023-05-18T15:03:41;19.80;99.90
22838;DHT22;11585;51.450;-0.240;2023-05-18T15:06:07;19.80;99.90
22838;DHT22;11585;51.450;-0.240;2023-05-18T15:08:38;19.80;99.90
22838;DHT22;11585;51.450;-0.240;2023-05-18T15:11:04;19.90;99.90
22838;DHT22;11585;51.450;-0.240;2023-05-18T15:13:30;19.90;99.90
22838;DHT22;11585;51.450;-0.240;2023-05-18T15:15:56;19.80;99.90
22838;DHT22;11585;51.450;-0.240;2023-05-18T15:18:24;19.90;99.90
22838;DHT22;11585;51.450;-0.240;2023-05-18T15:20:50;19.90;99.90
22838;DHT22;11585;51.450;-0.240;2023-05-18T15:23:16;19.90;99.90
22838;DHT22;11585;51.450;-0.240;2023-05-18T15:25:41;19.90;99.90
22838;DHT22;11585;51.450;-0.240;2023-05-18T15:28:07;19.90;99.90
22838;DHT22;11585;51.450;-0.240;2023-05-18T15:30:33;19.90;99.90
22838;DHT22;11585;51.450;-0.240;2023-05-18T15:32:59;20.00;99.90
22838;DHT22;11585;51.450;-0.240;2023-05-18T15:35:28;20.00;99.90
22838;DHT22;11585;51.450;-0.240;2023-05-18T15:37:54;20.00;99.90
22838;DHT22;11585;51.450;-0.240;2023-05-18T15:40:20;20.00;99.90
22838;DHT22;11585;51.450;-0.240;2023-05-18T15:42:46;20.00;99.90
22838;DHT22;11585;51.450;-0.240;2023-05-18T15:45:11;20.00;99.90
22838;DHT22;11585;51.450;-0.240;2023-05-18T15:47:37;20.00;99.90
22838;DHT22;11585;51.450;-0.240;2023-05-18T15:53:08;20.00;99.90
22838;DHT22;11585;51.450;-0.240;2023-05-18T15:55:33;20.00;99.90
22838;DHT22;11585;51.450;-0.240;2023-05-18T15:57:59;20.00;99.90
22838;DHT22;11585;51.450;-0.240;2023-05-18T16:07:08;20.00;99.90
22838;DHT22;11585;51.450;-0.240;2023-05-18T16:12:38;20.00;99.90
22838;DHT22;11585;51.450;-0.240;2023-05-18T16:15:04;20.00;99.90
22838;DHT22;11585;51.450;-0.240;2023-05-18T16:17:30;20.00;99.90
22838;DHT22;11585;51.450;-0.240;2023-05-18T16:22:59;20.00;99.90
22838;DHT22;11585;51.450;-0.240;2023-05-18T16:25:25;20.00;99.90
22838;DHT22;11585;51.450;-0.240;2023-05-18T16:27:51;20.00;99.90
22838;DHT22;11585;51.450;-0.240;2023-05-18T16:33:04;20.00;99.90
22838;DHT22;11585;51.450;-0.240;2023-05-18T16:35:30;20.00;99.90
22838;DHT22;11585;51.450;-0.240;2023-05-18T16:37:56;20.00;99.90
22838;DHT22;11585;51.450;-0.240;2023-05-18T16:40:24;20.00;99.90
22838;DHT22;11585;51.450;-0.240;2023-05-18T16:42:50;20.00;99.90
22838;DHT22;11585;51.450;-0.240;2023-05-18T16:45:15;20.00;99.90
22838;DHT22;11585;51.450;-0.240;2023-05-18T16:47:41;20.00;99.90
22838;DHT22;11585;51.450;-0.240;2023-05-18T16:50:08;20.00;99.90
22838;DHT22;11585;51.450;-0.240;2023-05-18T16:52:34;20.00;99.90
22838;DHT22;11585;51.450;-0.240;2023-05-18T16:55:00;20.10;99.90
22838;DHT22;11585;51.450;-0.240;2023-05-18T16:57:25;20.10;99.90
22838;DHT22;11585;51.450;-0.240;2023-05-18T17:02:42;20.10;99.90
22838;DHT22;11585;51.450;-0.240;2023-05-18T17:05:12;20.10;99.90
22838;DHT22;11585;51.450;-0.240;2023-05-18T17:07:38;20.10;99.90
22838;DHT22;11585;51.450;-0.240;2023-05-18T17:10:05;20.10;99.90
22838;DHT22;11585;51.450;-0.240;2023-05-18T17:12:31;20.10;99.90
22838;DHT22;11585;51.450;-0.240;2023-05-18T17:14:58;20.10;99.90
22838;DHT22;11585;51.450;-0.240;2023-05-18T17:17:23;20.10;99.90
22838;DHT22;11585;51.450;-0.240;2023-05-18T17:23:11;20.10;99.90
22838;DHT22;11585;51.450;-0.240;2023-05-18T17:25:41;20.00;99.90
22838;DHT22;11585;51.450;-0.240;2023-05-18T17:28:07;20.00;99.90
22838;DHT22;11585;51.450;-0.240;2023-05-18T17:33:55;20.00;99.90
22838;DHT22;11585;51.450;-0.240;2023-05-18T17:42:47;19.90;99.90
22838;DHT22;11585;51.450;-0.240;2023-05-18T17:45:13;19.90;99.90
22838;DHT22;11585;51.450;-0.240;2023-05-18T17:47:38;19.90;99.90
22838;DHT22;11585;51.450;-0.240;2023-05-18T17:53:28;19.90;99.90
22838;DHT22;11585;51.450;-0.240;2023-05-18T17:55:54;19.80;99.90
22838;DHT22;11585;51.450;-0.240;2023-05-18T18:05:04;19.80;99.90
22838;DHT22;11585;51.450;-0.240;2023-05-18T18:13:55;19.80;99.90
22838;DHT22;11585;51.450;-0.240;2023-05-18T18:16:21;19.70;99.90
22838;DHT22;11585;51.450;-0.240;2023-05-18T18:18:51;19.70;99.90
22838;DHT22;11585;51.450;-0.240;2023-05-18T18:21:17;19.70;99.90
22838;DHT22;11585;51.450;-0.240;2023-05-18T18:23:43;19.60;99.90
22838;DHT22;11585;51.450;-0.240;2023-05-18T18:26:08;19.60;99.90
22838;DHT22;11585;51.450;-0.240;2023-05-18T18:31:37;19.60;99.90
22838;DHT22;11585;51.450;-0.240;2023-05-18T18:34:03;19.60;99.90
22838;DHT22;11585;51.450;-0.240;2023-05-18T18:36:32;19.60;99.90
22838;DHT22;11585;51.450;-0.240;2023-05-18T18:42:22;19.50;99.90
22838;DHT22;11585;51.450;-0.240;2023-05-18T18:44:48;19.50;99.90
22838;DHT22;11585;51.450;-0.240;2023-05-18T18:47:17;19.40;99.90
22838;DHT22;11585;51.450;-0.240;2023-05-18T18:53:04;19.40;99.90
22838;DHT22;11585;51.450;-0.240;2023-05-18T18:55:30;19.40;99.90
22838;DHT22;11585;51.450;-0.240;2023-05-18T18:57:55;19.30;99.90
22838;DHT22;11585;51.450;-0.240;2023-05-18T19:03:45;19.30;99.90
22838;DHT22;11585;51.450;-0.240;2023-05-18T19:06:11;19.30;99.90
22838;DHT22;11585;51.450;-0.240;2023-05-18T19:08:42;19.20;99.90
22838;DHT22;11585;51.450;-0.240;2023-05-18T19:11:07;19.20;99.90
22838;DHT22;11585;51.450;-0.240;2023-05-18T19:13:33;19.20;99.90
22838;DHT22;11585;51.450;-0.240;2023-05-18T19:15:58;19.20;99.90
22838;DHT22;11585;51.450;-0.240;2023-05-18T19:21:46;19.20;99.90
22838;DHT22;11585;51.450;-0.240;2023-05-18T19:24:12;19.10;99.90
22838;DHT22;11585;51.450;-0.240;2023-05-18T19:26:38;19.10;99.90
22838;DHT22;11585;51.450;-0.240;2023-05-18T19:29:04;19.10;99.90
22838;DHT22;11585;51.450;-0.240;2023-05-18T19:31:30;19.10;99.90
22838;DHT22;11585;51.450;-0.240;2023-05-18T19:33:58;19.10;99.90
22838;DHT22;11585;51.450;-0.240;2023-05-18T19:36:25;19.00;99.90
22838;DHT22;11585;51.450;-0.240;2023-05-18T19:42:12;19.00;99.90
22838;DHT22;11585;51.450;-0.240;2023-05-18T19:44:38;19.00;99.90
22838;DHT22;11585;51.450;-0.240;2023-05-18T19:47:06;18.90;99.90
22838;DHT22;11585;51.450;-0.240;2023-05-18T19:52:37;18.90;99.90